CGMPW CYHZ-CYQM
Flight info
| Callsign | CGMPW |
|---|---|
| Flight time | 0h 24m |
| Altitude | 16000 |
| Route | KELNO |
| Aircraft | PC24/L-SBDGIRWY/LB2 |
Departure
| Time | 2026-05-03 22:26 |
|---|---|
| Airport | Halifax / Stanfield International Airport (CYHZ) |
Arrival
| Time | 2026-05-03 22:50 |
|---|---|
| Airport | Greater Moncton Roméo LeBlanc International Airport (CYQM) |
| Time | Latitude | Longitude | Altitude | Speed | Heading |
|---|---|---|---|---|---|
| 2026-05-03 22:14 | 44.88179 | -63.51710 | 454 ft | 0 kts | 307° |
| 2026-05-03 22:20 | 44.88179 | -63.51715 | 454 ft | 2 kts | 260° |
| 2026-05-03 22:20 | 44.88151 | -63.51704 | 454 ft | 12 kts | 152° |
| 2026-05-03 22:21 | 44.88053 | -63.51602 | 454 ft | 18 kts | 177° |
| 2026-05-03 22:21 | 44.87950 | -63.51689 | 455 ft | 17 kts | 213° |
| 2026-05-03 22:21 | 44.87853 | -63.51782 | 455 ft | 17 kts | 216° |
| 2026-05-03 22:21 | 44.87760 | -63.51876 | 455 ft | 16 kts | 215° |
| 2026-05-03 22:22 | 44.87667 | -63.51969 | 455 ft | 17 kts | 216° |
| 2026-05-03 22:22 | 44.87571 | -63.52063 | 455 ft | 16 kts | 214° |
| 2026-05-03 22:22 | 44.87481 | -63.52151 | 455 ft | 16 kts | 215° |
| 2026-05-03 22:22 | 44.87379 | -63.52252 | 456 ft | 19 kts | 215° |
| 2026-05-03 22:23 | 44.87273 | -63.52358 | 456 ft | 18 kts | 216° |
| 2026-05-03 22:23 | 44.87180 | -63.52451 | 456 ft | 16 kts | 215° |
| 2026-05-03 22:23 | 44.87091 | -63.52538 | 457 ft | 15 kts | 215° |
| 2026-05-03 22:23 | 44.87007 | -63.52624 | 457 ft | 15 kts | 214° |
| 2026-05-03 22:24 | 44.86923 | -63.52705 | 457 ft | 14 kts | 215° |
| 2026-05-03 22:24 | 44.86848 | -63.52790 | 457 ft | 13 kts | 228° |
| 2026-05-03 22:24 | 44.86781 | -63.52898 | 457 ft | 16 kts | 228° |
| 2026-05-03 22:24 | 44.86702 | -63.52954 | 457 ft | 13 kts | 157° |
| 2026-05-03 22:25 | 44.86654 | -63.52877 | 457 ft | 9 kts | 124° |
| 2026-05-03 22:25 | 44.86648 | -63.52866 | 457 ft | 0 kts | 126° |
| 2026-05-03 22:25 | 44.86635 | -63.52838 | 457 ft | 11 kts | 124° |
| 2026-05-03 22:25 | 44.86602 | -63.52703 | 456 ft | 17 kts | 69° |
| 2026-05-03 22:26 | 44.86785 | -63.52510 | 456 ft | 67 kts | 34° |
| 2026-05-03 22:26 | 44.87393 | -63.51912 | 455 ft | 142 kts | 32° |
| 2026-05-03 22:26 | 44.88373 | -63.50938 | 740 ft | 200 kts | 35° |
| 2026-05-03 22:26 | 44.89597 | -63.49601 | 1298 ft | 245 kts | 38° |
| 2026-05-03 22:27 | 44.91018 | -63.48115 | 1856 ft | 258 kts | 38° |
| 2026-05-03 22:27 | 44.92512 | -63.46685 | 2377 ft | 249 kts | 37° |
| 2026-05-03 22:27 | 44.93887 | -63.45462 | 2836 ft | 216 kts | 37° |
| 2026-05-03 22:27 | 44.95205 | -63.44380 | 3305 ft | 231 kts | 38° |
| 2026-05-03 22:28 | 44.96666 | -63.43211 | 3831 ft | 259 kts | 37° |
| 2026-05-03 22:28 | 44.98430 | -63.42198 | 4319 ft | 289 kts | 19° |
| 2026-05-03 22:28 | 45.00535 | -63.42228 | 4879 ft | 319 kts | 354° |
| 2026-05-03 22:28 | 45.02590 | -63.43538 | 5357 ft | 335 kts | 327° |
| 2026-05-03 22:29 | 45.04427 | -63.45557 | 5838 ft | 333 kts | 325° |
| 2026-05-03 22:29 | 45.06252 | -63.47672 | 6300 ft | 343 kts | 323° |
| 2026-05-03 22:29 | 45.08089 | -63.49816 | 6792 ft | 342 kts | 323° |
| 2026-05-03 22:29 | 45.09949 | -63.51926 | 7268 ft | 343 kts | 323° |
| 2026-05-03 22:30 | 45.11821 | -63.54041 | 7748 ft | 345 kts | 322° |
| 2026-05-03 22:30 | 45.13691 | -63.56178 | 8234 ft | 347 kts | 321° |
| 2026-05-03 22:30 | 45.15424 | -63.58580 | 8741 ft | 350 kts | 310° |
| 2026-05-03 22:30 | 45.16999 | -63.61227 | 9252 ft | 352 kts | 307° |
| 2026-05-03 22:31 | 45.18562 | -63.63885 | 9711 ft | 352 kts | 310° |
| 2026-05-03 22:31 | 45.20250 | -63.66410 | 10170 ft | 354 kts | 314° |
| 2026-05-03 22:31 | 45.21981 | -63.68909 | 10654 ft | 357 kts | 313° |
| 2026-05-03 22:31 | 45.23682 | -63.71512 | 11128 ft | 363 kts | 311° |
| 2026-05-03 22:32 | 45.25386 | -63.74155 | 11612 ft | 367 kts | 311° |
| 2026-05-03 22:32 | 45.27115 | -63.76779 | 12102 ft | 365 kts | 312° |
| 2026-05-03 22:32 | 45.28852 | -63.79408 | 12609 ft | 365 kts | 311° |
| 2026-05-03 22:32 | 45.30588 | -63.82061 | 13136 ft | 368 kts | 311° |
| 2026-05-03 22:33 | 45.32329 | -63.84730 | 13740 ft | 371 kts | 311° |
| 2026-05-03 22:33 | 45.34109 | -63.87452 | 14350 ft | 375 kts | 311° |
| 2026-05-03 22:33 | 45.35893 | -63.90174 | 14982 ft | 378 kts | 312° |
| 2026-05-03 22:33 | 45.37678 | -63.92906 | 15579 ft | 377 kts | 311° |
| 2026-05-03 22:34 | 45.39463 | -63.95648 | 16093 ft | 387 kts | 311° |
| 2026-05-03 22:34 | 45.41324 | -63.98506 | 16204 ft | 396 kts | 311° |
| 2026-05-03 22:34 | 45.43193 | -64.01374 | 16220 ft | 392 kts | 311° |
| 2026-05-03 22:34 | 45.45046 | -64.04216 | 16139 ft | 390 kts | 311° |
| 2026-05-03 22:35 | 45.46872 | -64.07033 | 16008 ft | 388 kts | 311° |
| 2026-05-03 22:35 | 45.48685 | -64.09834 | 15886 ft | 390 kts | 311° |
| 2026-05-03 22:35 | 45.50544 | -64.12699 | 15600 ft | 393 kts | 311° |
| 2026-05-03 22:35 | 45.52387 | -64.15541 | 15148 ft | 387 kts | 311° |
| 2026-05-03 22:36 | 45.54196 | -64.18338 | 14708 ft | 382 kts | 311° |
| 2026-05-03 22:36 | 45.55992 | -64.21120 | 14281 ft | 380 kts | 311° |
| 2026-05-03 22:36 | 45.57775 | -64.23883 | 13855 ft | 377 kts | 312° |
| 2026-05-03 22:36 | 45.59548 | -64.26631 | 13427 ft | 374 kts | 312° |
| 2026-05-03 22:37 | 45.61304 | -64.29358 | 12971 ft | 371 kts | 312° |
| 2026-05-03 22:37 | 45.63039 | -64.32054 | 12506 ft | 366 kts | 313° |
| 2026-05-03 22:37 | 45.64755 | -64.34724 | 12031 ft | 364 kts | 313° |
| 2026-05-03 22:37 | 45.66467 | -64.37384 | 11490 ft | 363 kts | 314° |
| 2026-05-03 22:38 | 45.68161 | -64.40029 | 10928 ft | 356 kts | 314° |
| 2026-05-03 22:38 | 45.69789 | -64.42574 | 10383 ft | 336 kts | 315° |
| 2026-05-03 22:38 | 45.71323 | -64.44973 | 9828 ft | 318 kts | 316° |
| 2026-05-03 22:38 | 45.72784 | -64.47252 | 9259 ft | 304 kts | 317° |
| 2026-05-03 22:39 | 45.74183 | -64.49442 | 8617 ft | 291 kts | 318° |
| 2026-05-03 22:39 | 45.75500 | -64.51503 | 8035 ft | 279 kts | 318° |
| 2026-05-03 22:39 | 45.76791 | -64.53524 | 7472 ft | 269 kts | 319° |
| 2026-05-03 22:39 | 45.78038 | -64.55478 | 6900 ft | 262 kts | 319° |
| 2026-05-03 22:40 | 45.79252 | -64.57380 | 6343 ft | 255 kts | 320° |
| 2026-05-03 22:40 | 45.80437 | -64.59239 | 5790 ft | 250 kts | 320° |
| 2026-05-03 22:40 | 45.81598 | -64.61062 | 5209 ft | 245 kts | 320° |
| 2026-05-03 22:40 | 45.82741 | -64.62858 | 4641 ft | 242 kts | 321° |
| 2026-05-03 22:41 | 45.83863 | -64.64625 | 4113 ft | 237 kts | 321° |
| 2026-05-03 22:41 | 45.84933 | -64.66319 | 3974 ft | 218 kts | 322° |
| 2026-05-03 22:41 | 45.85912 | -64.67866 | 3983 ft | 209 kts | 323° |
| 2026-05-03 22:41 | 45.86897 | -64.69400 | 3982 ft | 209 kts | 323° |
| 2026-05-03 22:42 | 45.87889 | -64.70953 | 3992 ft | 213 kts | 322° |
| 2026-05-03 22:42 | 45.88896 | -64.72540 | 3997 ft | 215 kts | 322° |
| 2026-05-03 22:42 | 45.89904 | -64.74134 | 3987 ft | 216 kts | 322° |
| 2026-05-03 22:42 | 45.90892 | -64.75706 | 3996 ft | 205 kts | 322° |
| 2026-05-03 22:43 | 45.91814 | -64.77178 | 3994 ft | 192 kts | 323° |
| 2026-05-03 22:43 | 45.92699 | -64.78565 | 3998 ft | 185 kts | 324° |
| 2026-05-03 22:43 | 45.93560 | -64.79907 | 4014 ft | 178 kts | 324° |
| 2026-05-03 22:43 | 45.94350 | -64.81158 | 4001 ft | 162 kts | 326° |
| 2026-05-03 22:44 | 45.95095 | -64.82324 | 3929 ft | 155 kts | 326° |
| 2026-05-03 22:44 | 45.95864 | -64.83318 | 3831 ft | 142 kts | 342° |
| 2026-05-03 22:44 | 45.96723 | -64.83905 | 3744 ft | 132 kts | 354° |
| 2026-05-03 22:44 | 45.97601 | -64.84164 | 3671 ft | 126 kts | 5° |
| 2026-05-03 22:45 | 45.98461 | -64.84124 | 3587 ft | 122 kts | 15° |
| 2026-05-03 22:45 | 45.99270 | -64.83808 | 3512 ft | 119 kts | 27° |
| 2026-05-03 22:45 | 46.00025 | -64.83328 | 3458 ft | 118 kts | 29° |
| 2026-05-03 22:45 | 46.00679 | -64.82624 | 3359 ft | 118 kts | 38° |
| 2026-05-03 22:46 | 46.01308 | -64.81868 | 3285 ft | 118 kts | 40° |
| 2026-05-03 22:46 | 46.01923 | -64.81084 | 3208 ft | 118 kts | 40° |
| 2026-05-03 22:46 | 46.02530 | -64.80290 | 3133 ft | 115 kts | 41° |
| 2026-05-03 22:46 | 46.03076 | -64.79555 | 2965 ft | 103 kts | 40° |
| 2026-05-03 22:47 | 46.03594 | -64.78862 | 2769 ft | 100 kts | 40° |
| 2026-05-03 22:47 | 46.04090 | -64.78199 | 2575 ft | 98 kts | 39° |
| 2026-05-03 22:47 | 46.04593 | -64.77528 | 2364 ft | 99 kts | 38° |
| 2026-05-03 22:47 | 46.05103 | -64.76847 | 2178 ft | 101 kts | 38° |
| 2026-05-03 22:48 | 46.05622 | -64.76149 | 1998 ft | 103 kts | 37° |
| 2026-05-03 22:48 | 46.06147 | -64.75445 | 1829 ft | 103 kts | 36° |
| 2026-05-03 22:48 | 46.06680 | -64.74742 | 1619 ft | 106 kts | 37° |
| 2026-05-03 22:48 | 46.07224 | -64.74011 | 1442 ft | 108 kts | 36° |
| 2026-05-03 22:49 | 46.07781 | -64.73262 | 1242 ft | 111 kts | 36° |
| 2026-05-03 22:49 | 46.08351 | -64.72497 | 1041 ft | 113 kts | 37° |
| 2026-05-03 22:49 | 46.08933 | -64.71713 | 846 ft | 116 kts | 37° |
| 2026-05-03 22:49 | 46.09530 | -64.70918 | 661 ft | 117 kts | 38° |
| 2026-05-03 22:50 | 46.10105 | -64.70154 | 460 ft | 113 kts | 38° |
| 2026-05-03 22:50 | 46.10678 | -64.69362 | 260 ft | 112 kts | 40° |
| 2026-05-03 22:50 | 46.11179 | -64.68671 | 197 ft | 72 kts | 42° |
| 2026-05-03 22:50 | 46.11328 | -64.68542 | 197 ft | 13 kts | 312° |
| 2026-05-03 22:51 | 46.11389 | -64.68646 | 204 ft | 13 kts | 311° |
| 2026-05-03 22:51 | 46.11440 | -64.68740 | 189 ft | 11 kts | 296° |